Time;durP1;ratioP1;P1;durP2;ratioP2;P2;SDS_P1;SDS_P2;PMS_P1;PMS_P2;Temp;Humidity;BMP_temperature;BMP_pressure;BME280_temperature;BME280_humidity;BME280_pressure;Samples;Min_cycle;Max_cycle;Signal;HPM_P1;HPM_P2
2022/12/02 00:00:31;;;;;;;18.63;13.20;;;;;;;0.42;77.42;99866.56;2279779;78;20899;-84
2022/12/02 00:03:32;;;;;;;24.90;14.30;;;;;;;0.40;77.61;99865.18;2279864;78;21274;-84
2022/12/02 00:06:33;;;;;;;98.87;18.63;;;;;;;0.40;77.80;99864.29;2279615;78;20921;-84
2022/12/02 00:09:33;;;;;;;26.17;13.67;;;;;;;0.39;77.85;99860.83;2279963;78;20935;-84
2022/12/02 00:12:33;;;;;;;24.70;13.77;;;;;;;0.43;77.85;99858.97;2279596;78;21271;-83
2022/12/02 00:15:34;;;;;;;20.43;12.93;;;;;;;0.45;77.73;99859.06;2279555;78;21255;-84
2022/12/02 00:18:34;;;;;;;23.90;14.27;;;;;;;0.48;77.79;99858.88;2267986;78;20985;-84
2022/12/02 00:21:35;;;;;;;22.60;13.77;;;;;;;0.48;77.52;99860.16;2273791;78;20934;-84
2022/12/02 00:24:35;;;;;;;22.23;14.37;;;;;;;0.47;77.67;99856.21;2279532;78;20895;-84
2022/12/02 00:27:35;;;;;;;19.93;13.00;;;;;;;0.48;77.48;99852.45;2279104;78;21307;-85
2022/12/02 00:30:36;;;;;;;21.03;13.73;;;;;;;0.50;77.80;99857.70;2279477;78;21295;-84
2022/12/02 00:33:36;;;;;;;22.63;14.70;;;;;;;0.46;77.77;99853.14;2279378;78;20926;-84
2022/12/02 00:36:37;;;;;;;23.23;14.40;;;;;;;0.42;77.92;99852.05;2279621;78;20914;-84
2022/12/02 00:39:37;;;;;;;23.33;13.87;;;;;;;0.41;78.03;99854.12;2279655;78;20913;-84
2022/12/02 00:42:37;;;;;;;23.63;14.37;;;;;;;0.41;78.03;99848.98;2279584;78;20942;-84
2022/12/02 00:48:57;;;;;;;23.93;14.67;;;;;;;0.35;78.14;99854.09;2264127;78;21024;-84
2022/12/02 00:51:57;;;;;;;20.60;13.97;;;;;;;0.36;78.31;99851.63;2275753;78;20942;-84
2022/12/02 00:54:58;;;;;;;21.63;14.13;;;;;;;0.42;78.38;99848.59;2281670;78;20970;-84
2022/12/02 00:57:58;;;;;;;21.30;14.27;;;;;;;0.42;78.15;99848.20;2283550;77;21263;-83
2022/12/02 01:00:58;;;;;;;21.43;14.27;;;;;;;0.38;78.10;99846.59;2283776;77;21310;-83
2022/12/02 01:03:59;;;;;;;21.13;14.00;;;;;;;0.36;78.32;99844.32;2278673;77;20942;-84
2022/12/02 01:06:59;;;;;;;27.47;14.93;;;;;;;0.34;78.25;99844.22;2275818;78;20875;-83
2022/12/02 01:10:00;;;;;;;21.83;13.67;;;;;;;0.33;78.31;99843.72;2275239;78;20927;-83
2022/12/02 01:13:00;;;;;;;23.23;14.77;;;;;;;0.29;78.44;99843.91;2275657;78;20938;-84
2022/12/02 01:16:00;;;;;;;26.97;15.13;;;;;;;0.29;78.54;99841.73;2275753;78;20930;-83
2022/12/02 01:19:01;;;;;;;24.37;15.47;;;;;;;0.32;78.73;99847.08;2275752;78;20994;-84
2022/12/02 01:22:01;;;;;;;31.60;17.67;;;;;;;0.29;78.54;99838.77;2275514;78;20954;-84
2022/12/02 01:25:02;;;;;;;76.27;31.57;;;;;;;0.27;78.69;99841.63;2275771;78;21330;-84
2022/12/02 01:28:02;;;;;;;25.90;15.47;;;;;;;0.29;78.87;99838.77;2275821;78;21219;-83
2022/12/02 01:31:03;;;;;;;30.17;15.20;;;;;;;0.33;78.57;99838.58;2275697;78;20891;-83
2022/12/02 01:34:03;;;;;;;26.50;15.27;;;;;;;0.33;78.70;99838.58;2275765;78;20915;-84
2022/12/02 01:37:03;;;;;;;27.87;15.30;;;;;;;0.30;78.65;99837.09;2275947;78;21330;-83
2022/12/02 01:40:04;;;;;;;24.90;14.83;;;;;;;0.28;78.71;99836.10;2275713;78;20954;-83
2022/12/02 01:43:04;;;;;;;21.63;13.73;;;;;;;0.28;78.92;99836.10;2275766;78;20970;-83
2022/12/02 01:46:05;;;;;;;28.00;14.53;;;;;;;0.25;78.80;99827.80;2275700;78;20958;-83
2022/12/02 01:49:09;;;;;;;31.43;17.57;;;;;;;0.18;78.88;99832.41;2254913;78;20962;-86
2022/12/02 01:52:09;;;;;;;23.57;14.77;;;;;;;0.20;79.09;99828.27;2256209;78;20958;-83
2022/12/02 01:55:10;;;;;;;25.40;15.33;;;;;;;0.24;78.90;99826.02;2275759;78;20931;-83
2022/12/02 01:58:10;;;;;;;26.20;14.43;;;;;;;0.23;78.88;99819.48;2275741;78;20938;-84
2022/12/02 02:01:10;;;;;;;25.17;15.13;;;;;;;0.23;78.85;99818.20;2275965;78;20982;-83
2022/12/02 02:04:11;;;;;;;23.10;14.13;;;;;;;0.23;79.02;99820.38;2275877;78;21361;-83
2022/12/02 02:07:11;;;;;;;23.20;14.13;;;;;;;0.18;78.86;99814.44;2276067;78;20875;-84
2022/12/02 02:10:12;;;;;;;20.73;13.00;;;;;;;0.09;78.74;99807.00;2275790;78;20949;-83
2022/12/02 02:13:12;;;;;;;25.93;13.97;;;;;;;0.09;78.88;99807.00;2276515;78;21263;-85
2022/12/02 02:16:13;;;;;;;26.07;15.07;;;;;;;0.10;78.87;99803.64;2276002;78;20946;-83
2022/12/02 02:19:13;;;;;;;24.47;14.17;;;;;;;0.12;79.12;99800.80;2275587;78;20958;-83
2022/12/02 02:22:13;;;;;;;23.83;15.13;;;;;;;0.16;78.93;99808.31;2275761;78;21006;-83
2022/12/02 02:25:14;;;;;;;24.13;14.20;;;;;;;0.14;78.74;99800.89;2275870;78;21631;-83
2022/12/02 02:28:14;;;;;;;20.30;13.33;;;;;;;0.08;78.86;99803.05;2275647;78;20914;-83
2022/12/02 02:31:15;;;;;;;32.90;14.47;;;;;;;0.03;79.09;99805.70;2275711;78;20951;-84
2022/12/02 02:34:15;;;;;;;21.87;13.97;;;;;;;-0.07;79.47;99805.03;2275824;78;20903;-84
2022/12/02 02:37:15;;;;;;;23.83;12.87;;;;;;;-0.10;79.38;99806.50;2275773;78;21247;-84
2022/12/02 02:40:16;;;;;;;22.70;14.23;;;;;;;-0.09;79.49;99810.84;2275728;78;20966;-84
2022/12/02 02:43:16;;;;;;;21.27;13.60;;;;;;;-0.11;79.55;99800.87;2275652;78;20937;-84
2022/12/02 02:46:17;;;;;;;24.23;14.10;;;;;;;-0.08;79.66;99803.25;2275780;78;20895;-83
2022/12/02 02:49:17;;;;;;;21.90;13.93;;;;;;;-0.07;79.74;99798.61;2275734;78;20997;-83
2022/12/02 02:52:17;;;;;;;201.13;25.47;;;;;;;-0.01;79.90;99804.56;2275930;78;20903;-83
2022/12/02 02:55:18;;;;;;;23.67;15.00;;;;;;;-0.01;79.57;99801.99;2278743;78;21322;-83
2022/12/02 02:58:18;;;;;;;24.67;15.20;;;;;;;-0.03;79.63;99801.89;2279524;78;21328;-84
2022/12/02 03:01:19;;;;;;;24.73;15.27;;;;;;;-0.02;79.78;99800.21;2279403;78;21357;-84
2022/12/02 03:04:19;;;;;;;21.00;13.13;;;;;;;0.01;79.59;99803.42;2279563;78;20906;-83
2022/12/02 03:07:20;;;;;;;23.07;13.40;;;;;;;-0.01;79.45;99801.99;2279619;78;20902;-83
2022/12/02 03:10:20;;;;;;;55.27;14.60;;;;;;;0.01;79.69;99800.84;2279280;78;20887;-83
2022/12/02 03:13:20;;;;;;;23.93;14.23;;;;;;;0.04;79.68;99795.53;2279333;78;21385;-84
2022/12/02 03:16:21;;;;;;;20.93;13.77;;;;;;;0.05;79.48;99793.46;2279463;78;20903;-84
2022/12/02 03:19:21;;;;;;;38.13;14.07;;;;;;;0.05;79.27;99797.70;2279721;78;20998;-84
2022/12/02 03:22:21;;;;;;;26.53;14.10;;;;;;;0.02;79.29;99794.93;2279740;78;20985;-83
2022/12/02 03:25:22;;;;;;;20.53;12.60;;;;;;;0.01;79.37;99801.73;2279695;78;20883;-83
2022/12/02 03:28:22;;;;;;;20.70;13.20;;;;;;;-0.03;79.03;99794.19;2279815;78;20942;-83
2022/12/02 03:31:23;;;;;;;18.60;12.13;;;;;;;-0.13;79.24;99791.78;2279732;78;20875;-83
2022/12/02 03:34:23;;;;;;;51.10;14.50;;;;;;;-0.22;79.31;99795.00;2279948;78;20906;-87
2022/12/02 03:37:24;;;;;;;20.70;12.87;;;;;;;-0.23;79.41;99789.76;2280234;78;20942;-78
2022/12/02 03:40:24;;;;;;;43.07;13.80;;;;;;;-0.28;79.67;99793.69;2279705;78;20934;-84
2022/12/02 03:43:24;;;;;;;20.60;11.50;;;;;;;-0.24;80.07;99787.59;2279336;78;20938;-83
2022/12/02 03:46:25;;;;;;;25.23;12.83;;;;;;;-0.23;79.88;99788.09;2279385;78;20891;-82
2022/12/02 03:49:25;;;;;;;16.70;11.73;;;;;;;-0.21;79.86;99789.47;2279403;78;20949;-84
2022/12/02 03:52:26;;;;;;;18.97;11.73;;;;;;;-0.19;80.07;99780.20;2279393;78;20911;-84
2022/12/02 03:55:26;;;;;;;20.97;12.57;;;;;;;-0.15;80.03;99782.20;2279249;78;21358;-83
2022/12/02 03:58:28;;;;;;;19.27;12.43;;;;;;;-0.12;80.00;99788.82;2279331;78;20891;-84
2022/12/02 04:01:29;;;;;;;21.10;11.80;;;;;;;-0.06;80.11;99782.43;2279406;78;20927;-84
2022/12/02 04:04:33;;;;;;;19.30;11.63;;;;;;;-0.02;79.80;99785.70;2258791;78;20903;-82
2022/12/02 04:07:37;;;;;;;17.23;12.53;;;;;;;-0.03;79.83;99787.77;2279374;78;21235;-84
2022/12/02 04:10:37;;;;;;;16.67;11.13;;;;;;;-0.07;79.81;99790.91;2279324;78;21298;-84
2022/12/02 04:13:38;;;;;;;20.20;12.13;;;;;;;-0.11;79.65;99779.95;2279419;78;20895;-84
2022/12/02 04:16:38;;;;;;;21.37;12.23;;;;;;;-0.12;79.89;99778.16;2279937;78;20875;-84
2022/12/02 04:19:38;;;;;;;19.70;12.37;;;;;;;-0.06;79.85;99788.84;2279447;78;20946;-83
2022/12/02 04:22:39;;;;;;;16.33;11.80;;;;;;;-0.10;79.88;99789.81;2279757;78;20914;-83
2022/12/02 04:25:39;;;;;;;16.83;11.00;;;;;;;-0.18;79.62;99791.86;2279375;78;20941;-82
2022/12/02 04:28:40;;;;;;;17.80;11.57;;;;;;;-0.19;79.85;99791.75;2279408;78;20954;-81
2022/12/02 04:31:40;;;;;;;21.60;12.37;;;;;;;-0.17;79.83;99788.50;2280765;78;20941;-81
2022/12/02 04:34:40;;;;;;;20.77;12.10;;;;;;;-0.14;79.78;99795.52;2281424;78;20907;-81
2022/12/02 04:37:41;;;;;;;21.33;11.47;;;;;;;-0.15;79.93;99791.17;2280165;78;20894;-82
2022/12/02 04:40:46;;;;;;;22.17;11.03;;;;;;;-0.23;79.46;99784.62;2279674;78;20989;-82
2022/12/02 04:43:44;;;;;;;16.77;11.03;;;;;;;-0.27;80.24;99797.64;2257367;78;20931;-84
2022/12/02 04:46:44;;;;;;;16.03;11.03;;;;;;;-0.30;80.33;99797.81;2280039;78;20946;-84
2022/12/02 04:49:44;;;;;;;21.33;11.37;;;;;;;-0.27;80.51;99798.03;2279287;78;21030;-80
2022/12/02 04:52:45;;;;;;;22.77;12.50;;;;;;;-0.29;80.47;99786.77;2279596;78;20894;-83
2022/12/02 04:55:48;;;;;;;17.87;11.60;;;;;;;-0.32;80.69;99786.16;2279214;78;20993;-84
2022/12/02 04:58:48;;;;;;;19.83;12.27;;;;;;;-0.33;80.88;99782.71;2280232;78;20922;-82
2022/12/02 05:01:49;;;;;;;24.03;12.73;;;;;;;-0.40;80.97;99783.07;2280387;78;21362;-81
2022/12/02 05:04:49;;;;;;;18.50;10.27;;;;;;;-0.49;80.96;99780.26;2279655;78;20910;-83
2022/12/02 05:07:50;;;;;;;19.60;11.40;;;;;;;-0.52;80.93;99784.78;2278636;78;21630;-84
2022/12/02 05:10:50;;;;;;;23.33;11.23;;;;;;;-0.57;81.20;99787.80;2278656;78;20918;-85
2022/12/02 05:13:50;;;;;;;19.70;12.37;;;;;;;-0.56;81.41;99783.18;2279435;78;20883;-84
2022/12/02 05:16:51;;;;;;;18.40;11.20;;;;;;;-0.57;81.43;99780.11;2279814;78;20961;-84
2022/12/02 05:19:51;;;;;;;22.63;11.53;;;;;;;-0.53;81.45;99784.28;2279314;78;21466;-84
2022/12/02 05:22:51;;;;;;;23.50;11.87;;;;;;;-0.51;81.70;99783.11;2278818;78;20906;-83
2022/12/02 05:25:52;;;;;;;19.87;12.57;;;;;;;-0.49;81.44;99778.58;2278421;78;20891;-83
2022/12/02 05:28:52;;;;;;;20.20;12.10;;;;;;;-0.43;81.55;99782.86;2278909;78;20918;-83
2022/12/02 05:31:53;;;;;;;23.27;12.40;;;;;;;-0.45;81.54;99775.84;2278314;78;20903;-85
2022/12/02 05:34:53;;;;;;;18.83;11.97;;;;;;;-0.46;81.84;99773.67;2278659;78;21478;-84
2022/12/02 05:37:54;;;;;;;18.77;11.30;;;;;;;-0.44;82.05;99781.08;2278935;78;20926;-84
2022/12/02 05:40:54;;;;;;;27.73;12.27;;;;;;;-0.39;82.16;99778.44;2277196;78;20970;-85
2022/12/02 05:43:54;;;;;;;17.70;10.70;;;;;;;0.30;91.07;99772.89;2279898;78;20894;-84
2022/12/02 05:46:55;;;;;;;19.10;11.53;;;;;;;1.50;81.75;99763.09;2280270;78;20887;-85
2022/12/02 05:49:55;;;;;;;17.90;11.50;;;;;;;1.06;79.87;99775.73;2278314;78;21338;-84
2022/12/02 05:52:56;;;;;;;17.27;11.50;;;;;;;0.75;79.48;99775.42;2277823;78;20946;-84
2022/12/02 05:55:56;;;;;;;19.50;12.67;;;;;;;0.51;79.96;99782.02;2277203;78;20994;-83
2022/12/02 05:58:56;;;;;;;23.80;12.47;;;;;;;0.23;80.10;99785.72;2278234;78;20902;-84
2022/12/02 06:01:57;;;;;;;21.87;13.07;;;;;;;0.02;80.79;99780.81;2277101;78;21005;-83
2022/12/02 06:04:57;;;;;;;20.03;11.93;;;;;;;-0.12;80.84;99787.14;2277685;78;20914;-82
2022/12/02 06:07:58;;;;;;;18.53;13.07;;;;;;;-0.32;81.42;99789.63;2277297;78;20903;-84
2022/12/02 06:10:58;;;;;;;20.17;12.37;;;;;;;-0.42;81.67;99788.48;2277634;78;20950;-82
2022/12/02 06:13:58;;;;;;;20.77;12.07;;;;;;;-0.50;82.00;99790.91;2277523;78;20986;-82
2022/12/02 06:16:59;;;;;;;27.07;12.13;;;;;;;-0.51;82.03;99797.21;2277674;78;21343;-82
2022/12/02 06:19:59;;;;;;;21.40;12.03;;;;;;;-0.59;81.58;99794.50;2277483;78;20899;-82
2022/12/02 06:23:00;;;;;;;18.27;11.70;;;;;;;-0.63;81.66;99795.96;2276630;78;20918;-82
2022/12/02 06:26:00;;;;;;;17.80;10.30;;;;;;;-0.59;81.69;99797.06;2277025;78;20871;-81
2022/12/02 06:29:01;;;;;;;25.07;13.27;;;;;;;-0.62;81.82;99803.27;2277164;78;21357;-81
2022/12/02 06:32:01;;;;;;;21.00;11.70;;;;;;;-0.66;81.73;99806.00;2276769;78;21013;-82
2022/12/02 06:35:01;;;;;;;18.67;10.23;;;;;;;-0.68;81.71;99811.41;2277289;78;20934;-82
2022/12/02 06:38:02;;;;;;;17.47;10.87;;;;;;;-0.65;82.02;99812.52;2277584;78;20930;-83
2022/12/02 06:41:02;;;;;;;18.67;12.13;;;;;;;-0.65;82.06;99811.23;2277496;78;20965;-83
2022/12/02 06:47:21;;;;;;;20.67;11.57;;;;;;;-0.75;82.52;99806.23;2276714;78;21314;-82
2022/12/02 06:50:22;;;;;;;27.70;12.33;;;;;;;-0.78;82.63;99814.10;2277399;78;20943;-79
2022/12/02 06:53:24;;;;;;;19.53;11.63;;;;;;;-0.70;83.06;99815.15;2277357;78;20995;-82
2022/12/02 06:56:23;;;;;;;20.07;10.90;;;;;;;-0.40;83.89;99815.53;2277225;78;20938;-81
2022/12/02 06:59:24;;;;;;;24.07;12.00;;;;;;;-0.45;82.69;99816.48;2277446;78;20942;-82
2022/12/02 07:02:24;;;;;;;22.17;12.13;;;;;;;-0.53;82.29;99816.73;2276996;78;20939;-76
2022/12/02 07:05:25;;;;;;;18.03;11.77;;;;;;;-0.59;82.26;99819.76;2276981;78;20946;-79
2022/12/02 07:08:25;;;;;;;22.47;11.90;;;;;;;-0.66;82.01;99818.82;2278027;78;20927;-81
2022/12/02 07:14:44;;;;;;;19.20;12.67;;;;;;;-0.86;82.25;99826.77;2277024;78;20890;-82
2022/12/02 07:17:44;;;;;;;19.30;11.67;;;;;;;-0.90;82.52;99821.77;2277420;78;20902;-81
2022/12/02 07:20:45;;;;;;;19.50;11.10;;;;;;;-0.90;82.73;99817.92;2277451;78;20938;-82
2022/12/02 07:23:45;;;;;;;25.23;12.93;;;;;;;-0.91;82.59;99818.70;2276515;78;21354;-78
2022/12/02 07:26:46;;;;;;;22.43;11.87;;;;;;;-0.96;82.66;99824.78;2276318;78;20939;-80
2022/12/02 07:29:46;;;;;;;17.33;11.33;;;;;;;-0.95;82.90;99826.95;2276861;78;20899;-81
2022/12/02 07:32:46;;;;;;;26.87;12.67;;;;;;;-0.93;82.40;99835.64;2276070;78;21406;-81
2022/12/02 07:35:47;;;;;;;22.17;11.77;;;;;;;-0.97;82.39;99829.80;2276501;78;20903;-82
2022/12/02 07:38:47;;;;;;;22.73;11.93;;;;;;;-1.00;82.20;99834.70;2276467;78;20883;-81
2022/12/02 07:41:48;;;;;;;28.97;13.17;;;;;;;-1.02;81.88;99832.42;2276420;78;20965;-81
2022/12/02 07:44:48;;;;;;;16.67;10.47;;;;;;;-1.02;82.22;99833.31;2276933;78;20954;-82
2022/12/02 07:47:49;;;;;;;18.37;10.73;;;;;;;-1.02;81.73;99839.72;2277668;78;21295;-85
2022/12/02 07:50:49;;;;;;;22.50;12.67;;;;;;;-1.00;81.60;99841.11;2277913;78;20907;-81
2022/12/02 07:53:49;;;;;;;16.07;10.23;;;;;;;-1.02;81.69;99833.31;2277314;78;20902;-82
2022/12/02 07:56:50;;;;;;;17.10;10.47;;;;;;;-1.03;81.58;99840.50;2274223;78;20962;-81
2022/12/02 07:59:50;;;;;;;14.90;9.30;;;;;;;-1.01;81.75;99840.22;2274027;78;21302;-82
2022/12/02 08:02:51;;;;;;;16.43;9.97;;;;;;;-1.01;81.86;99836.38;2273597;78;21014;-82
2022/12/02 08:05:51;;;;;;;19.73;11.03;;;;;;;-1.03;81.83;99835.77;2274271;78;20930;-81
2022/12/02 08:08:51;;;;;;;17.67;10.50;;;;;;;-0.99;81.57;99830.97;2274743;78;21370;-81
2022/12/02 08:11:52;;;;;;;17.77;10.13;;;;;;;-0.99;81.14;99832.64;2274819;78;20906;-82
2022/12/02 08:14:52;;;;;;;18.47;9.87;;;;;;;-1.02;81.29;99833.70;2275010;78;20915;-82
2022/12/02 08:17:52;;;;;;;18.03;9.53;;;;;;;-1.02;81.30;99831.14;2274185;78;21486;-82
2022/12/02 08:20:53;;;;;;;18.33;11.53;;;;;;;-1.05;81.12;99833.09;2273510;78;20990;-80
2022/12/02 08:23:53;;;;;;;15.23;9.47;;;;;;;-1.11;81.44;99824.95;2273362;78;20903;-80
2022/12/02 08:26:54;;;;;;;20.20;10.20;;;;;;;-1.17;81.60;99823.61;2273164;78;21410;-82
2022/12/02 08:29:54;;;;;;;16.50;10.23;;;;;;;-1.17;81.60;99823.61;2273250;78;20876;-80
2022/12/02 08:32:54;;;;;;;19.33;11.80;;;;;;;-1.15;81.86;99827.18;2273159;78;20946;-80
2022/12/02 08:35:55;;;;;;;22.07;12.10;;;;;;;-1.11;81.96;99830.47;2272915;78;21707;-81
2022/12/02 08:38:55;;;;;;;21.27;11.47;;;;;;;-1.10;82.06;99825.84;2272562;78;20926;-80
2022/12/02 08:41:56;;;;;;;22.60;11.03;;;;;;;-1.05;81.98;99829.63;2273235;78;20926;-80
2022/12/02 08:44:56;;;;;;;18.23;10.63;;;;;;;-1.01;81.78;99842.78;2272896;78;20883;-80
2022/12/02 08:47:56;;;;;;;18.60;11.00;;;;;;;-0.98;81.74;99839.55;2273035;78;20899;-82
2022/12/02 08:50:57;;;;;;;19.90;11.87;;;;;;;-1.05;81.61;99848.85;2273595;78;20911;-80
2022/12/02 08:53:57;;;;;;;17.70;11.17;;;;;;;-1.10;81.75;99845.06;2274494;78;20933;-81
2022/12/02 08:56:59;;;;;;;19.77;12.07;;;;;;;-1.04;81.95;99848.07;2274066;78;20958;-81
2022/12/02 08:59:58;;;;;;;19.10;11.37;;;;;;;-1.05;81.87;99843.34;2274971;78;21263;-83
2022/12/02 09:02:59;;;;;;;23.27;12.67;;;;;;;-1.10;82.09;99842.11;2274673;78;21026;-80
2022/12/02 09:05:59;;;;;;;18.07;12.60;;;;;;;-1.13;82.20;99836.77;2274511;78;20911;-82
2022/12/02 09:08:59;;;;;;;21.00;12.73;;;;;;;-1.20;82.58;99841.33;2274063;78;20909;-83
2022/12/02 09:12:01;;;;;;;19.33;12.80;;;;;;;-1.23;82.62;99835.59;2274129;78;21408;-81
2022/12/02 09:15:00;;;;;;;20.20;13.03;;;;;;;-1.17;82.85;99841.55;2273205;78;20914;-81
2022/12/02 09:18:01;;;;;;;22.97;13.63;;;;;;;-1.14;82.76;99835.37;2273450;78;20938;-81
2022/12/02 09:21:01;;;;;;;23.60;13.70;;;;;;;-1.09;82.80;99836.59;2272264;78;20919;-81
2022/12/02 09:24:01;;;;;;;21.07;13.60;;;;;;;-1.04;83.23;99836.54;2272612;78;20899;-81
2022/12/02 09:27:02;;;;;;;25.33;15.17;;;;;;;-1.05;83.03;99832.20;2272674;78;20938;-80
2022/12/02 09:30:02;;;;;;;22.80;14.13;;;;;;;-1.04;82.96;99823.73;2273433;78;20950;-82
2022/12/02 09:33:03;;;;;;;25.00;14.20;;;;;;;-0.99;83.04;99822.39;2274148;78;20974;-82
2022/12/02 09:36:03;;;;;;;23.47;13.60;;;;;;;-0.90;83.12;99817.03;2273273;78;20851;-82
2022/12/02 09:39:03;;;;;;;51.00;15.30;;;;;;;-0.83;82.98;99817.63;2273641;78;20886;-83
2022/12/02 09:42:04;;;;;;;25.73;13.37;;;;;;;-0.74;83.18;99822.12;2274007;78;21323;-81
2022/12/02 09:45:04;;;;;;;20.80;14.13;;;;;;;-0.70;82.61;99823.23;2273694;78;20950;-82
2022/12/02 09:48:05;;;;;;;29.83;14.43;;;;;;;-0.69;82.24;99821.17;2273954;78;20950;-83
2022/12/02 09:51:05;;;;;;;37.07;16.17;;;;;;;-0.74;82.24;99820.84;2273825;78;20923;-83
2022/12/02 09:54:06;;;;;;;27.97;15.53;;;;;;;-0.77;82.35;99823.19;2273069;78;20914;-81
2022/12/02 09:57:06;;;;;;;31.53;15.77;;;;;;;-0.67;82.60;99827.30;2273581;78;20951;-82
2022/12/02 10:00:06;;;;;;;26.30;16.80;;;;;;;-0.65;82.39;99818.93;2273910;78;21577;-82
2022/12/02 10:03:07;;;;;;;29.50;17.33;;;;;;;-0.68;82.22;99821.28;2274016;78;20954;-83
2022/12/02 10:06:07;;;;;;;33.80;17.57;;;;;;;-0.77;82.02;99815.50;2273900;78;20930;-80
2022/12/02 10:09:08;;;;;;;33.33;18.20;;;;;;;-0.87;82.55;99813.02;2274346;78;20927;-83
2022/12/02 10:12:09;;;;;;;33.40;17.90;;;;;;;-0.84;82.85;99809.42;2273789;78;21327;-85
2022/12/02 10:15:08;;;;;;;34.27;17.63;;;;;;;-0.76;82.77;99809.59;2274484;78;20899;-85
2022/12/02 10:18:09;;;;;;;33.10;17.43;;;;;;;-0.65;82.61;99801.38;2273859;78;20883;-83
2022/12/02 10:21:09;;;;;;;31.27;17.57;;;;;;;-0.65;82.61;99801.38;2273519;78;21342;-81
2022/12/02 10:24:11;;;;;;;36.47;16.83;;;;;;;-0.67;82.43;99808.95;2274244;78;20938;-82
2022/12/02 10:27:10;;;;;;;31.97;17.33;;;;;;;-0.46;83.91;99807.41;2274734;78;20903;-84
2022/12/02 10:30:10;;;;;;;31.20;16.17;;;;;;;-0.35;81.98;99805.20;2273407;78;20950;-83
2022/12/02 10:33:11;;;;;;;33.40;16.53;;;;;;;-0.67;81.37;99805.50;2273511;78;20978;-81
2022/12/02 10:36:11;;;;;;;33.43;16.77;;;;;;;-0.67;81.37;99805.50;2273533;78;20879;-82
2022/12/02 10:39:12;;;;;;;32.40;15.80;;;;;;;-0.73;81.70;99805.06;2273742;78;20880;-81
2022/12/02 10:42:12;;;;;;;34.13;16.33;;;;;;;-0.80;81.82;99810.15;2272838;78;20935;-81
2022/12/02 10:45:13;;;;;;;25.57;14.60;;;;;;;-0.79;82.19;99809.37;2272977;78;20891;-80
2022/12/02 10:48:13;;;;;;;25.93;14.57;;;;;;;-0.80;81.72;99812.71;2273992;78;20927;-82
2022/12/02 10:51:14;;;;;;;28.63;14.77;;;;;;;-0.85;81.46;99804.19;2273708;78;21294;-80
2022/12/02 10:54:14;;;;;;;38.23;15.97;;;;;;;-0.87;81.72;99800.59;2274049;78;20954;-81
2022/12/02 10:57:14;;;;;;;44.07;17.50;;;;;;;-0.85;81.84;99807.64;2277143;78;20930;-81
2022/12/02 11:00:15;;;;;;;36.03;17.40;;;;;;;-0.86;81.89;99803.30;2278202;78;20954;-82
2022/12/02 11:03:15;;;;;;;34.17;17.00;;;;;;;-0.82;82.05;99801.45;2278027;78;20954;-82
2022/12/02 11:06:16;;;;;;;33.67;16.53;;;;;;;-0.81;81.61;99794.27;2278176;78;20914;-81
2022/12/02 11:09:18;;;;;;;30.70;16.93;;;;;;;-0.85;82.07;99787.14;2257224;78;20887;-82
2022/12/02 11:12:18;;;;;;;31.27;16.43;;;;;;;-0.80;82.02;99793.88;2277118;78;21325;-82
2022/12/02 11:15:19;;;;;;;34.33;15.67;;;;;;;-0.73;81.95;99788.41;2277982;78;20906;-82
2022/12/02 11:18:19;;;;;;;34.60;18.17;;;;;;;-0.72;81.71;99790.18;2278134;78;20907;-82
2022/12/02 11:21:20;;;;;;;44.23;19.37;;;;;;;-0.75;81.62;99789.58;2278643;78;20914;-81
2022/12/02 11:24:20;;;;;;;40.30;19.30;;;;;;;-0.79;81.76;99785.02;2278661;78;21306;-82
2022/12/02 11:27:20;;;;;;;35.07;18.90;;;;;;;-0.83;81.63;99787.25;2278433;78;20914;-81
2022/12/02 11:30:21;;;;;;;39.40;21.13;;;;;;;-0.85;81.76;99779.84;2278565;78;20899;-81
2022/12/02 11:33:21;;;;;;;41.90;19.73;;;;;;;-0.89;81.94;99782.55;2278221;78;20958;-81
2022/12/02 11:36:22;;;;;;;51.37;21.40;;;;;;;-0.92;81.96;99780.15;2278669;78;20923;-82
2022/12/02 11:39:22;;;;;;;37.30;19.33;;;;;;;-0.90;82.36;99784.61;2277806;78;20934;-81
2022/12/02 11:42:22;;;;;;;41.57;21.10;;;;;;;-0.91;82.23;99775.53;2278259;78;20930;-80
2022/12/02 11:45:23;;;;;;;35.80;19.07;;;;;;;-0.90;82.15;99774.35;2278086;78;20919;-83
2022/12/02 11:48:23;;;;;;;39.00;19.00;;;;;;;-0.94;82.05;99777.87;2277484;78;21404;-79
2022/12/02 11:51:24;;;;;;;47.57;19.47;;;;;;;-1.00;82.24;99770.63;2276806;78;20942;-82
2022/12/02 11:54:24;;;;;;;36.90;17.30;;;;;;;-0.97;82.57;99773.42;2276948;78;20895;-81
2022/12/02 11:57:25;;;;;;;39.87;19.67;;;;;;;-0.94;82.61;99767.23;2273836;78;20955;-83
2022/12/02 12:00:25;;;;;;;36.57;20.13;;;;;;;-0.90;82.93;99771.79;2274541;78;20993;-83
2022/12/02 12:03:25;;;;;;;40.83;19.87;;;;;;;-0.80;82.96;99767.85;2274156;78;20942;-83
2022/12/02 12:06:30;;;;;;;44.13;21.20;;;;;;;-0.77;83.15;99765.89;2273268;78;20942;-84
2022/12/02 12:09:26;;;;;;;42.37;22.20;;;;;;;-0.74;82.99;99763.16;2273943;78;20973;-84
2022/12/02 12:12:27;;;;;;;40.47;21.77;;;;;;;-0.83;82.91;99758.66;2273338;78;20950;-82
2022/12/02 12:15:27;;;;;;;47.27;23.57;;;;;;;-0.87;83.40;99756.63;2273553;78;20902;-82
2022/12/02 12:18:27;;;;;;;39.27;21.23;;;;;;;-0.92;83.31;99763.49;2274095;78;20879;-82
2022/12/02 12:21:28;;;;;;;45.00;22.70;;;;;;;-0.99;83.28;99766.01;2274232;78;21353;-82
2022/12/02 12:24:31;;;;;;;39.77;20.83;;;;;;;-1.01;83.60;99766.29;2274769;78;20974;-82
2022/12/02 12:27:31;;;;;;;44.43;22.93;;;;;;;-0.99;83.89;99759.60;2253931;78;21536;-83
2022/12/02 12:30:32;;;;;;;44.33;22.60;;;;;;;-0.99;83.55;99763.45;2274067;78;20911;-82
2022/12/02 12:33:31;;;;;;;41.20;21.17;;;;;;;-0.97;83.69;99763.16;2273518;78;21045;-80
2022/12/02 12:36:32;;;;;;;44.80;22.93;;;;;;;-1.03;83.72;99763.62;2273835;78;21317;-79
2022/12/02 12:39:32;;;;;;;47.53;22.10;;;;;;;-0.99;83.90;99764.73;2273787;78;20946;-82
2022/12/02 12:42:33;;;;;;;43.50;20.73;;;;;;;-0.96;83.80;99763.66;2273600;78;20945;-81
2022/12/02 12:45:33;;;;;;;47.77;23.80;;;;;;;-0.93;83.84;99766.45;2273283;78;20938;-81
2022/12/02 12:48:33;;;;;;;39.60;21.43;;;;;;;-0.87;83.87;99763.03;2273266;78;21538;-80
2022/12/02 12:51:34;;;;;;;41.83;21.37;;;;;;;-0.83;83.83;99754.81;2273340;78;20899;-81
2022/12/02 12:54:34;;;;;;;35.47;18.50;;;;;;;-0.78;83.56;99757.31;2274314;78;20910;-82
2022/12/02 12:57:35;;;;;;;37.97;20.47;;;;;;;-0.78;83.25;99759.88;2273811;78;20995;-81
2022/12/02 13:00:35;;;;;;;67.93;22.37;;;;;;;-0.84;83.56;99764.56;2273850;78;20974;-79
2022/12/02 13:03:36;;;;;;;43.37;21.47;;;;;;;-0.89;83.38;99764.60;2273540;78;21013;-79
2022/12/02 13:06:38;;;;;;;42.73;21.00;;;;;;;-0.93;83.57;99766.45;2274164;78;20919;-82
2022/12/02 13:09:36;;;;;;;45.83;22.50;;;;;;;-0.97;83.74;99763.16;2273710;78;20947;-83
2022/12/02 13:12:37;;;;;;;42.17;20.97;;;;;;;-0.98;83.82;99760.99;2272328;78;20911;-82
2022/12/02 13:15:37;;;;;;;47.67;23.67;;;;;;;-1.00;83.81;99767.68;2272890;78;21367;-82
2022/12/02 13:18:38;;;;;;;46.10;25.43;;;;;;;-1.03;83.89;99759.77;2271814;78;21373;-82
2022/12/02 13:21:38;;;;;;;42.17;22.43;;;;;;;-1.00;84.01;99769.36;2271738;78;20962;-81
2022/12/02 13:24:38;;;;;;;52.90;22.40;;;;;;;-1.03;84.64;99767.85;2272205;78;21684;-81
2022/12/02 13:27:39;;;;;;;54.33;23.37;;;;;;;-1.11;84.28;99773.70;2272423;78;20927;-82
2022/12/02 13:30:39;;;;;;;44.80;22.87;;;;;;;-1.12;84.49;99774.88;2272482;78;20907;-80
2022/12/02 13:33:40;;;;;;;36.57;20.53;;;;;;;-1.16;84.57;99771.20;2272961;78;20923;-80
2022/12/02 13:36:40;;;;;;;49.77;22.33;;;;;;;-1.18;84.46;99769.31;2273561;78;20942;-83
2022/12/02 13:39:41;;;;;;;53.60;22.77;;;;;;;-1.17;84.57;99771.98;2274085;78;20970;-81
2022/12/02 13:42:41;;;;;;;40.40;22.53;;;;;;;-1.18;84.80;99771.87;2274086;78;20934;-82
2022/12/02 13:45:43;;;;;;;45.63;21.57;;;;;;;-1.17;84.93;99776.22;2273821;78;21274;-81
2022/12/02 13:48:42;;;;;;;44.43;23.60;;;;;;;-1.14;85.14;99784.12;2274704;78;20939;-82
2022/12/02 13:51:42;;;;;;;41.20;22.07;;;;;;;-1.10;84.99;99779.72;2274876;78;20918;-82
2022/12/02 13:54:43;;;;;;;50.30;23.30;;;;;;;-1.03;85.10;99775.54;2274817;78;21377;-81
2022/12/02 13:57:43;;;;;;;47.17;21.80;;;;;;;-1.01;84.97;99777.44;2277497;78;21421;-81
2022/12/02 14:00:43;;;;;;;40.50;22.77;;;;;;;-1.02;84.99;99772.20;2278899;78;20942;-82